Time;durP1;ratioP1;P1;durP2;ratioP2;P2;SDS_P1;SDS_P2;PMS_P1;PMS_P2;Temp;Humidity;BMP_temperature;BMP_pressure;BME280_temperature;BME280_humidity;BME280_pressure;Samples;Min_cycle;Max_cycle;Signal;HPM_P1;HPM_P2
2023/03/11 00:00:28;;;;;;;0.30;0.30;;;4.30;99.90;;;4.10;60.57;99666.13;5012918;28;20293;-66
2023/03/11 00:02:58;;;;;;;0.30;0.30;;;4.30;99.90;;;4.08;60.85;99662.81;5012266;28;20214;-65
2023/03/11 00:05:29;;;;;;;0.20;0.20;;;4.30;99.90;;;4.11;60.80;99678.09;5000027;28;20219;-66
2023/03/11 00:07:56;;;;;;;1.20;0.32;;;4.30;99.90;;;4.04;60.72;99681.16;5014748;28;20266;-65
2023/03/11 00:10:37;;;;;;;0.22;0.22;;;4.20;99.90;;;4.01;60.40;99671.00;5013421;28;20195;-66
2023/03/11 00:13:05;;;;;;;1.00;0.32;;;4.20;99.90;;;4.00;60.37;99682.25;5004613;28;20215;-66
2023/03/11 00:15:34;;;;;;;0.30;0.30;;;4.20;99.90;;;4.00;60.24;99659.03;5011164;28;20701;-66
2023/03/11 00:18:02;;;;;;;0.20;0.20;;;4.10;99.90;;;3.99;60.63;99655.63;5008264;28;20759;-65
2023/03/11 00:20:36;;;;;;;0.30;0.30;;;4.10;99.90;;;4.02;60.99;99670.09;5005661;28;20590;-66
2023/03/11 00:23:05;;;;;;;0.30;0.30;;;4.20;99.90;;;4.07;60.44;99661.13;5003322;28;20234;-65
2023/03/11 00:25:34;;;;;;;0.65;0.35;;;4.20;99.90;;;4.08;60.45;99682.63;5012172;28;20206;-66
2023/03/11 00:28:01;;;;;;;0.28;0.28;;;4.20;99.90;;;4.12;60.32;99655.69;5007884;28;20309;-66
2023/03/11 00:30:29;;;;;;;0.30;0.30;;;4.30;99.90;;;4.07;60.89;99676.63;5012830;28;20211;-65
2023/03/11 00:32:57;;;;;;;0.20;0.20;;;4.20;99.90;;;4.05;60.74;99681.06;5012638;28;20638;-65
2023/03/11 00:35:30;;;;;;;0.40;0.40;;;4.20;99.90;;;4.06;60.49;99689.63;5006986;28;20306;-66
2023/03/11 00:38:02;;;;;;;0.20;0.20;;;4.20;99.90;;;4.09;60.87;99686.88;5010835;28;20211;-65
2023/03/11 00:40:31;;;;;;;0.63;0.40;;;4.30;99.90;;;4.08;61.24;99693.78;5011484;28;20202;-66
2023/03/11 00:42:59;;;;;;;0.20;0.20;;;4.20;99.90;;;4.07;61.36;99686.94;5013282;28;20222;-66
2023/03/11 00:45:27;;;;;;;0.30;0.30;;;4.30;99.90;;;4.06;61.42;99685.31;5008828;28;20203;-66
2023/03/11 00:47:54;;;;;;;0.40;0.40;;;4.30;99.90;;;4.04;61.68;99666.50;5011231;28;20771;-65
2023/03/11 00:50:40;;;;;;;0.30;0.30;;;4.20;99.90;;;4.01;62.20;99677.00;5012630;28;20286;-66
2023/03/11 00:53:08;;;;;;;0.30;0.30;;;4.20;99.90;;;3.97;62.10;99678.09;5027702;23;20234;-67
2023/03/11 00:55:35;;;;;;;0.30;0.30;;;4.20;99.90;;;3.94;62.47;99663.63;5011482;28;20245;-67
2023/03/11 00:58:05;;;;;;;0.20;0.20;;;4.10;99.90;;;3.90;62.38;99682.81;5010849;28;20218;-67
2023/03/11 01:00:33;;;;;;;0.22;0.22;;;4.10;99.90;;;3.87;62.99;99685.59;5013129;28;20210;-67
2023/03/11 01:03:00;;;;;;;3.72;0.30;;;4.00;99.90;;;3.89;62.54;99698.38;5012484;28;20226;-67
2023/03/11 01:05:31;;;;;;;0.30;0.30;;;4.10;99.90;;;3.90;63.33;99715.50;5012213;28;20207;-66
2023/03/11 01:07:58;;;;;;;0.50;0.50;;;4.10;99.90;;;3.86;63.29;99696.81;5007230;28;20268;-67
2023/03/11 01:10:27;;;;;;;1.27;0.30;;;4.00;99.90;;;3.84;63.34;99710.72;5016376;28;20206;-67
2023/03/11 01:12:54;;;;;;;0.20;0.20;;;4.00;99.90;;;3.87;nan;99705.38;5010398;28;20251;-67
2023/03/11 01:15:29;;;;;;;0.38;0.38;;;4.00;99.90;;;3.87;nan;99711.38;5011856;28;20267;-67
2023/03/11 01:17:56;;;;;;;0.30;0.30;;;4.10;99.90;;;3.82;nan;99705.66;5010814;28;20210;-67
2023/03/11 01:20:24;;;;;;;0.20;0.20;;;4.00;99.90;;;3.80;nan;99704.09;5012907;28;20213;-67
2023/03/11 01:22:51;;;;;;;0.20;0.20;;;4.00;99.90;;;3.80;nan;99704.91;5011912;28;20601;-67
2023/03/11 01:25:20;;;;;;;0.45;0.45;;;4.00;99.90;;;3.78;nan;99696.44;5005638;28;20199;-67
2023/03/11 01:27:47;;;;;;;0.35;0.35;;;3.90;99.90;;;3.79;nan;99692.13;5011280;28;20227;-65
2023/03/11 01:30:20;;;;;;;0.75;0.40;;;4.00;99.90;;;3.76;nan;99685.38;5011499;28;20249;-67
2023/03/11 01:32:48;;;;;;;1.80;0.45;;;3.90;99.90;;;3.76;nan;99681.97;5011507;28;20712;-67
2023/03/11 01:35:18;;;;;;;0.30;0.30;;;3.90;99.90;;;3.72;nan;99667.59;5009393;28;20203;-67
2023/03/11 01:37:48;;;;;;;6.90;0.65;;;3.90;99.90;;;3.75;nan;99685.44;5010401;28;20202;-67
2023/03/11 01:40:19;;;;;;;0.38;0.38;;;3.90;99.90;;;3.73;nan;99689.88;4981182;28;20217;-67
2023/03/11 01:42:46;;;;;;;0.30;0.30;;;3.90;99.90;;;3.74;nan;99696.72;4993984;28;20235;-65
2023/03/11 01:45:49;;;;;;;0.32;0.32;;;3.90;99.90;;;3.71;nan;99709.78;4992306;28;20227;-67
2023/03/11 01:48:16;;;;;;;0.30;0.30;;;3.90;99.90;;;3.73;nan;99719.09;4990132;28;20601;-67
2023/03/11 01:50:48;;;;;;;0.30;0.30;;;3.90;99.90;;;3.76;nan;99729.25;4992552;28;20257;-68
2023/03/11 01:53:16;;;;;;;1.75;0.40;;;3.90;99.90;;;3.75;nan;99731.88;4990110;28;20249;-67
2023/03/11 01:55:46;;;;;;;0.20;0.20;;;3.90;99.90;;;3.77;nan;99736.03;4992962;28;20207;-68
2023/03/11 01:58:21;;;;;;;0.35;0.35;;;4.00;99.90;;;3.76;nan;99734.41;5006674;28;20254;-67
2023/03/11 02:00:49;;;;;;;0.95;0.43;;;4.00;99.90;;;3.81;nan;99740.09;4991750;28;20242;-67
2023/03/11 02:03:34;;;;;;;0.45;0.45;;;4.00;99.90;;;3.86;nan;99750.16;5002981;28;20642;-67
2023/03/11 02:06:07;;;;;;;0.30;0.30;;;4.00;99.90;;;3.88;nan;99743.16;5009053;28;20672;-67
2023/03/11 02:08:34;;;;;;;0.70;0.40;;;4.10;99.90;;;3.92;nan;99750.63;5009670;28;20296;-67
2023/03/11 02:11:04;;;;;;;0.40;0.40;;;4.10;99.90;;;3.94;nan;99748.78;5010434;28;20675;-67
2023/03/11 02:13:34;;;;;;;0.30;0.30;;;4.20;99.90;;;3.91;nan;99749.00;5026906;28;20230;-67
2023/03/11 02:16:02;;;;;;;0.30;0.30;;;4.10;99.90;;;3.92;nan;99748.06;5016710;28;20191;-67
2023/03/11 02:18:30;;;;;;;0.30;0.30;;;4.10;99.90;;;3.87;nan;99738.94;5009420;28;20215;-67
2023/03/11 02:21:22;;;;;;;0.30;0.30;;;4.10;99.90;;;3.84;nan;99731.34;5010406;28;20202;-67
2023/03/11 02:24:01;;;;;;;0.38;0.38;;;4.00;99.90;;;3.83;nan;99732.28;5010683;28;20230;-68
2023/03/11 02:26:57;;;;;;;0.20;0.20;;;4.00;99.90;;;3.79;nan;99734.19;5009753;28;20221;-67
2023/03/11 02:29:27;;;;;;;2.05;0.47;;;4.00;99.90;;;3.82;nan;99733.19;5026031;28;20226;-67
2023/03/11 02:31:55;;;;;;;0.30;0.30;;;4.00;99.90;;;3.76;nan;99718.91;5011395;28;20207;-67
2023/03/11 02:34:27;;;;;;;0.30;0.30;;;4.00;99.90;;;3.78;nan;99717.06;5008788;28;20226;-67
2023/03/11 02:36:54;;;;;;;0.30;0.30;;;4.00;99.90;;;3.76;nan;99720.66;5004364;28;20266;-67
2023/03/11 02:40:29;;;;;;;0.60;0.60;;;3.90;99.90;;;3.78;nan;99724.81;5009348;28;20708;-65
2023/03/11 02:43:01;;;;;;;0.20;0.20;;;4.00;99.90;;;3.75;nan;99719.00;5021270;28;20287;-67
2023/03/11 02:45:30;;;;;;;0.40;0.40;;;4.00;99.90;;;3.71;nan;99725.25;5009139;28;20252;-68
2023/03/11 02:47:58;;;;;;;0.22;0.22;;;3.90;99.90;;;3.66;nan;99732.44;5009576;28;20237;-67
2023/03/11 02:50:27;;;;;;;0.30;0.30;;;3.80;99.90;;;3.61;nan;99734.44;5028757;28;20202;-66
2023/03/11 02:52:54;;;;;;;1.83;0.45;;;3.80;99.90;;;3.58;nan;99748.34;5009576;28;20245;-65
2023/03/11 02:55:22;;;;;;;0.43;0.43;;;3.80;99.90;;;3.56;nan;99741.59;4994416;28;20677;-67
2023/03/11 02:57:49;;;;;;;0.40;0.40;;;3.80;99.90;;;3.60;nan;99753.44;5009914;28;20199;-67
2023/03/11 03:00:17;;;;;;;0.40;0.40;;;3.80;99.90;;;3.57;nan;99753.59;4994688;28;20200;-68
2023/03/11 03:02:45;;;;;;;0.98;0.40;;;3.80;99.90;;;3.59;nan;99752.59;4994715;28;20240;-67
2023/03/11 03:05:12;;;;;;;0.40;0.40;;;3.80;99.90;;;3.61;nan;99749.91;5008598;28;20676;-67
2023/03/11 03:07:39;;;;;;;0.30;0.30;;;3.80;99.90;;;3.65;nan;99748.81;5001787;28;20627;-67
2023/03/11 03:10:08;;;;;;;0.20;0.20;;;3.90;99.90;;;3.65;nan;99747.09;5013585;28;20256;-67
2023/03/11 03:12:34;;;;;;;0.30;0.30;;;3.90;99.90;;;3.69;nan;99753.72;4997564;28;20228;-68
2023/03/11 03:15:02;;;;;;;0.20;0.20;;;3.90;99.90;;;3.69;nan;99747.72;5014341;28;20203;-66
2023/03/11 03:17:29;;;;;;;0.30;0.30;;;3.90;99.90;;;3.66;nan;99751.31;5014918;28;20206;-66
2023/03/11 03:19:56;;;;;;;2.17;0.30;;;3.90;99.90;;;3.60;nan;99754.25;5014821;28;20207;-66
2023/03/11 03:22:26;;;;;;;0.40;0.40;;;3.80;99.90;;;3.58;nan;99763.81;5012793;28;20209;-66
2023/03/11 03:24:53;;;;;;;0.20;0.20;;;3.80;99.90;;;3.50;nan;99765.16;5014362;28;20571;-65
2023/03/11 03:27:20;;;;;;;0.28;0.28;;;3.70;99.90;;;3.44;nan;99773.25;5025590;28;20213;-66
2023/03/11 03:29:47;;;;;;;0.40;0.40;;;3.70;99.90;;;3.42;nan;99775.09;5021370;28;20230;-66
2023/03/11 03:32:14;;;;;;;0.30;0.30;;;3.60;99.90;;;3.40;nan;99776.94;5002391;28;20207;-66
2023/03/11 03:34:41;;;;;;;0.40;0.30;;;3.60;99.90;;;3.36;nan;99778.84;5012572;28;20198;-66
2023/03/11 03:37:08;;;;;;;2.60;0.38;;;3.60;99.90;;;3.33;nan;99780.75;5011328;28;20284;-66
2023/03/11 03:39:35;;;;;;;0.20;0.20;;;3.50;99.90;;;3.32;nan;99792.00;5012151;28;20268;-66
2023/03/11 03:42:02;;;;;;;0.40;0.40;;;3.50;99.90;;;3.30;nan;99786.09;5013063;28;20202;-66
2023/03/11 03:44:29;;;;;;;0.30;0.30;;;3.50;99.90;;;3.27;nan;99783.69;5005805;28;20283;-66
2023/03/11 03:46:56;;;;;;;0.55;0.50;;;3.50;99.90;;;3.26;nan;99789.78;5000591;28;20232;-66
2023/03/11 03:49:23;;;;;;;0.30;0.30;;;3.50;99.90;;;3.24;nan;99783.88;5008676;28;20223;-66
2023/03/11 03:51:50;;;;;;;0.20;0.20;;;3.50;99.90;;;3.21;nan;99787.44;5003752;28;20206;-66
2023/03/11 03:54:17;;;;;;;0.40;0.40;;;3.40;99.90;;;3.16;nan;99789.44;5012485;28;20245;-65
2023/03/11 03:56:44;;;;;;;0.28;0.28;;;3.40;99.90;;;3.11;nan;99802.56;5012459;28;20276;-65
2023/03/11 03:59:10;;;;;;;0.35;0.35;;;3.30;99.90;;;3.12;nan;99798.25;5011586;28;20207;-66
2023/03/11 04:01:37;;;;;;;0.30;0.30;;;3.40;99.90;;;3.12;nan;99796.50;5028021;28;20601;-65
2023/03/11 04:04:04;;;;;;;1.17;0.60;;;3.30;99.90;;;3.13;nan;99803.31;4998369;28;20240;-65
2023/03/11 04:06:31;;;;;;;0.40;0.40;;;3.40;99.90;;;3.10;nan;99794.94;5003959;28;20263;-65
2023/03/11 04:08:58;;;;;;;1.23;0.60;;;3.30;99.90;;;3.09;nan;99806.13;5011977;28;20600;-65
2023/03/11 04:11:25;;;;;;;1.17;0.63;;;3.30;99.90;;;3.06;nan;99804.59;5012884;28;20206;-65
2023/03/11 04:13:53;;;;;;;0.43;0.43;;;3.30;99.90;;;3.05;nan;99802.06;5013826;28;20226;-66
2023/03/11 04:16:22;;;;;;;0.35;0.35;;;3.30;99.90;;;3.10;nan;99806.06;4998254;28;20261;-66
2023/03/11 04:18:50;;;;;;;0.30;0.30;;;3.30;99.90;;;3.15;nan;99798.91;4993441;28;20211;-66
2023/03/11 04:21:17;;;;;;;0.38;0.38;;;3.40;99.90;;;3.21;nan;99804.66;4993361;28;20219;-66
2023/03/11 04:23:44;;;;;;;0.60;0.40;;;3.40;99.90;;;3.19;nan;99806.47;4993397;28;20759;-66
2023/03/11 04:26:11;;;;;;;0.30;0.30;;;3.40;99.90;;;3.14;nan;99807.56;4993337;28;20677;-65
2023/03/11 04:28:38;;;;;;;0.85;0.60;;;3.40;99.90;;;3.14;nan;99807.56;5000671;28;20707;-66
2023/03/11 04:31:05;;;;;;;1.15;0.50;;;3.40;99.90;;;3.13;nan;99805.09;5022774;28;20220;-64
2023/03/11 04:33:32;;;;;;;0.20;0.20;;;3.40;99.90;;;3.08;nan;99817.38;5009057;28;20218;-65
2023/03/11 04:36:04;;;;;;;0.30;0.30;;;3.30;99.90;;;3.06;nan;99817.47;5010672;28;20664;-65
2023/03/11 04:38:31;;;;;;;0.38;0.38;;;3.30;99.90;;;3.05;nan;99818.38;5008848;28;20210;-66
2023/03/11 04:41:05;;;;;;;0.40;0.40;;;3.30;99.90;;;3.04;nan;99803.00;5009124;28;20207;-65
2023/03/11 04:43:33;;;;;;;0.20;0.20;;;3.30;99.90;;;3.01;nan;99810.88;4994771;28;20400;-66
2023/03/11 04:46:00;;;;;;;0.43;0.43;;;3.20;99.90;;;2.98;nan;99806.72;4996218;28;20214;-66
2023/03/11 04:48:27;;;;;;;0.30;0.30;;;3.20;99.90;;;2.98;nan;99805.91;5009515;28;20244;-66
2023/03/11 04:50:54;;;;;;;0.57;0.57;;;3.20;99.90;;;2.97;nan;99809.38;5011037;28;20690;-65
2023/03/11 04:53:21;;;;;;;0.20;0.20;;;3.20;99.90;;;2.96;nan;99813.69;5006051;28;20300;-65
2023/03/11 04:55:49;;;;;;;0.45;0.45;;;3.20;99.90;;;2.95;nan;99824.94;5011592;28;20268;-66
2023/03/11 04:58:16;;;;;;;0.52;0.52;;;3.20;99.90;;;2.95;nan;99827.50;5007404;28;20199;-66
2023/03/11 05:00:43;;;;;;;5.93;0.88;;;3.20;99.90;;;2.93;nan;99826.75;5008698;28;20205;-66
2023/03/11 05:03:10;;;;;;;0.40;0.40;;;3.20;99.90;;;2.92;nan;99834.56;5009861;28;20781;-67
2023/03/11 05:05:37;;;;;;;0.30;0.30;;;3.20;99.90;;;2.92;nan;99837.97;5010874;28;20882;-66
2023/03/11 05:08:04;;;;;;;0.40;0.40;;;3.20;99.90;;;2.90;nan;99839.78;4998917;28;20742;-65
2023/03/11 05:10:32;;;;;;;1.88;0.40;;;3.20;99.90;;;2.89;nan;99830.41;4991485;28;20238;-66
2023/03/11 05:12:59;;;;;;;0.60;0.60;;;3.10;99.90;;;2.87;nan;99829.66;4991627;28;20223;-65
2023/03/11 05:15:26;;;;;;;4.57;0.50;;;3.10;99.90;;;2.82;nan;99833.38;4993334;28;20288;-65
2023/03/11 05:17:52;;;;;;;0.43;0.43;;;3.10;99.90;;;2.84;nan;99826.41;4991286;28;20207;-66
2023/03/11 05:20:19;;;;;;;1.65;0.50;;;3.10;99.90;;;2.87;nan;99837.41;5010422;28;20703;-65
2023/03/11 05:22:46;;;;;;;0.55;0.55;;;3.10;99.90;;;2.84;nan;99840.13;5011251;28;20230;-66
2023/03/11 05:25:13;;;;;;;0.70;0.40;;;3.00;99.90;;;2.81;nan;99835.13;5011390;28;20673;-66
2023/03/11 05:27:40;;;;;;;0.40;0.40;;;3.10;99.90;;;2.83;nan;99842.78;5027264;28;20206;-66
2023/03/11 05:30:10;;;;;;;0.40;0.40;;;3.10;99.90;;;2.78;nan;99844.75;5005488;28;20292;-65
2023/03/11 05:32:37;;;;;;;0.52;0.52;;;3.00;99.90;;;2.76;nan;99847.44;5011773;28;20229;-65
2023/03/11 05:35:04;;;;;;;1.30;0.32;;;3.00;99.90;;;2.75;nan;99844.91;5010132;28;20579;-65
2023/03/11 05:37:31;;;;;;;1.48;0.70;;;3.00;99.90;;;2.72;nan;99851.09;5011142;28;20206;-66
2023/03/11 05:39:58;;;;;;;0.65;0.47;;;3.00;99.90;;;2.70;nan;99860.63;5011250;28;20582;-65
2023/03/11 05:42:25;;;;;;;0.80;0.52;;;3.00;99.90;;;2.65;nan;99857.44;5015799;28;20226;-66
2023/03/11 05:44:52;;;;;;;0.50;0.50;;;2.90;99.90;;;2.67;nan;99857.38;5010200;28;20276;-66
2023/03/11 05:47:19;;;;;;;3.30;0.60;;;2.90;99.90;;;2.68;nan;99853.91;5010428;28;20206;-66
2023/03/11 05:49:47;;;;;;;0.40;0.40;;;2.90;99.90;;;2.69;nan;99851.22;5010215;28;20231;-66
2023/03/11 05:52:14;;;;;;;0.20;0.20;;;2.90;99.90;;;2.70;nan;99855.47;5009326;28;20209;-65
2023/03/11 05:54:41;;;;;;;0.75;0.40;;;3.00;99.90;;;2.67;nan;99858.22;5008970;28;20207;-65
2023/03/11 05:57:08;;;;;;;0.70;0.40;;;2.90;99.90;;;2.68;nan;99867.63;5002670;28;20680;-65
2023/03/11 05:59:36;;;;;;;0.40;0.40;;;3.00;99.90;;;2.67;nan;99865.94;5005034;28;20210;-65
2023/03/11 06:02:03;;;;;;;0.20;0.20;;;2.90;99.90;;;2.69;nan;99863.25;4995231;28;20665;-67
2023/03/11 06:04:30;;;;;;;0.63;0.60;;;2.90;99.90;;;2.70;nan;99862.38;5005779;28;20261;-68
2023/03/11 06:06:57;;;;;;;0.40;0.40;;;2.90;99.90;;;2.68;nan;99866.78;4991398;28;20211;-65
2023/03/11 06:09:24;;;;;;;0.45;0.30;;;2.90;99.90;;;2.68;nan;99869.34;4993119;28;20705;-68
2023/03/11 06:11:52;;;;;;;3.63;1.20;;;2.90;99.90;;;2.71;nan;99867.44;5010789;28;20210;-66
2023/03/11 06:14:19;;;;;;;0.22;0.22;;;3.00;99.90;;;2.76;nan;99869.78;5005126;28;20602;-65
2023/03/11 06:16:46;;;;;;;0.75;0.52;;;3.00;99.90;;;2.81;nan;99878.09;5010182;28;20200;-65
2023/03/11 06:19:13;;;;;;;0.20;0.20;;;3.00;99.90;;;2.89;nan;99883.69;5010078;28;20203;-65
2023/03/11 06:21:40;;;;;;;10.13;0.55;;;3.10;99.90;;;3.19;nan;99888.97;5009558;28;20638;-68
2023/03/11 06:24:07;;;;;;;0.65;0.50;;;3.30;99.90;;;3.72;nan;99889.47;5010621;28;20649;-65
2023/03/11 06:26:34;;;;;;;0.50;0.50;;;3.80;99.90;;;4.41;nan;99895.75;5009804;28;20201;-66
2023/03/11 06:29:01;;;;;;;0.40;0.40;;;4.50;99.90;;;5.12;nan;99901.81;5010352;28;20250;-66
2023/03/11 06:31:29;;;;;;;0.40;0.40;;;5.20;99.90;;;5.84;nan;99904.16;5010489;28;20734;-66
2023/03/11 06:33:57;;;;;;;0.50;0.50;;;5.90;99.90;;;6.57;nan;99905.38;5025796;28;20234;-66
2023/03/11 06:36:24;;;;;;;2.87;0.60;;;6.60;99.90;;;7.12;nan;99910.25;5010839;28;20206;-67
2023/03/11 06:38:52;;;;;;;0.53;0.53;;;7.20;99.90;;;7.34;nan;99913.00;5008718;28;20625;-66
2023/03/11 06:41:19;;;;;;;0.70;0.43;;;7.50;99.90;;;7.43;nan;99916.72;5008875;28;20982;-66
2023/03/11 06:43:46;;;;;;;0.70;0.70;;;7.60;99.90;;;7.41;nan;99922.00;5009467;28;20668;-69
2023/03/11 06:46:20;;;;;;;1.63;0.50;;;7.60;99.90;;;7.36;nan;99928.47;5008273;28;20699;-66
2023/03/11 06:48:50;;;;;;;0.83;0.40;;;7.50;99.90;;;7.22;nan;99942.38;5003649;28;20633;-66
2023/03/11 06:51:19;;;;;;;0.40;0.40;;;7.50;99.90;;;7.44;nan;99937.38;5000571;28;22299;-66
2023/03/11 06:53:52;;;;;;;0.67;0.60;;;7.60;99.90;;;7.87;nan;99944.72;5016826;23;20689;-66
2023/03/11 06:56:21;;;;;;;2.33;0.90;;;8.00;99.40;;;8.58;nan;99937.75;4997982;28;20627;-66
2023/03/11 06:58:48;;;;;;;0.47;0.47;;;8.70;98.50;;;9.38;nan;99949.75;4984136;28;20651;-67
2023/03/11 07:01:20;;;;;;;0.60;0.60;;;9.50;96.10;;;10.21;nan;99950.94;5005338;28;20629;-67
2023/03/11 07:03:48;;;;;;;0.43;0.43;;;10.30;94.60;;;10.83;nan;99954.41;4991442;28;20646;-66
2023/03/11 07:06:24;;;;;;;0.73;0.57;;;11.00;92.30;;;11.40;nan;99959.09;4997764;28;20634;-67
2023/03/11 07:08:52;;;;;;;1.60;0.60;;;11.60;90.50;;;11.69;nan;99960.03;4999664;28;20642;-66
2023/03/11 07:11:25;;;;;;;2.20;0.90;;;12.10;87.80;;;11.89;nan;99963.53;5011208;28;20629;-67
2023/03/11 07:13:53;;;;;;;3.80;0.90;;;12.20;85.60;;;12.31;nan;99959.72;4993117;28;21329;-65
2023/03/11 07:16:26;;;;;;;1.90;1.07;;;12.50;83.20;;;12.72;nan;99961.22;4990729;28;20709;-66
2023/03/11 07:18:59;;;;;;;1.40;1.30;;;12.80;81.50;;;13.12;nan;99968.88;5006437;28;21229;-68
2023/03/11 07:21:28;;;;;;;1.73;1.50;;;13.20;79.00;;;13.34;nan;99973.78;4990656;28;20625;-65
2023/03/11 07:23:58;;;;;;;1.60;1.50;;;13.60;77.60;;;13.54;nan;99974.53;5005521;28;20724;-66
2023/03/11 07:26:26;;;;;;;1.23;1.20;;;13.90;75.20;;;13.92;nan;99985.66;4991668;28;20618;-66
2023/03/11 07:28:55;;;;;;;1.23;1.13;;;14.40;73.10;;;14.28;nan;99980.44;4991539;28;20642;-66
2023/03/11 07:31:25;;;;;;;1.20;1.10;;;14.80;70.90;;;14.56;nan;99979.41;5000612;28;20632;-67
2023/03/11 07:33:53;;;;;;;1.43;1.10;;;15.20;68.30;;;14.90;nan;99975.09;4992645;28;20666;-68
2023/03/11 07:36:23;;;;;;;4.10;1.20;;;15.50;66.10;;;15.23;nan;99989.25;4977669;28;20769;-67
2023/03/11 07:39:14;;;;;;;6.07;0.93;;;15.90;64.80;;;15.41;nan;99987.41;5003306;28;20688;-67
2023/03/11 07:41:43;;;;;;;2.80;1.07;;;16.20;62.80;;;15.67;nan;99992.66;4993899;28;21040;-65
2023/03/11 07:44:12;;;;;;;1.07;0.93;;;16.50;61.80;;;15.91;nan;100000.63;4998727;28;20741;-66
2023/03/11 07:46:40;;;;;;;1.37;1.23;;;16.80;60.60;;;15.86;nan;100003.75;5006540;28;20626;-68
2023/03/11 07:49:07;;;;;;;1.43;1.20;;;16.70;59.50;;;15.74;nan;100012.09;4987784;28;20646;-68
2023/03/11 07:51:36;;;;;;;2.60;1.30;;;16.70;59.40;;;16.02;nan;100014.31;4984634;28;21201;-67
2023/03/11 07:54:04;;;;;;;0.70;0.70;;;17.00;58.70;;;16.20;nan;100008.94;4987979;28;21250;-67
2023/03/11 07:56:33;;;;;;;4.17;1.80;;;17.30;58.10;;;16.76;nan;100016.13;4974904;28;20642;-66
2023/03/11 07:59:03;;;;;;;0.60;0.57;;;17.80;57.10;;;17.21;nan;100018.22;4993405;28;21010;-67
2023/03/11 08:01:35;;;;;;;1.60;1.23;;;18.40;56.00;;;18.19;nan;100025.66;5009730;28;20681;-67
2023/03/11 08:04:10;;;;;;;2.20;1.40;;;19.10;55.00;;;18.60;nan;100035.00;4992032;28;20661;-68
2023/03/11 08:06:42;;;;;;;2.07;1.20;;;19.60;53.70;;;18.86;nan;100040.78;4991661;28;20635;-66
2023/03/11 08:09:09;;;;;;;5.37;1.60;;;19.90;52.70;;;19.17;nan;100048.59;5012392;28;21024;-68
2023/03/11 08:11:37;;;;;;;1.23;1.17;;;20.30;51.50;;;19.85;nan;100046.56;5012522;28;20621;-68
2023/03/11 08:14:04;;;;;;;4.83;1.40;;;21.00;50.40;;;20.18;nan;100043.50;4996134;28;20667;-67
2023/03/11 08:16:32;;;;;;;2.00;0.93;;;21.50;49.20;;;20.74;nan;100056.00;4981024;28;20658;-69
2023/03/11 08:18:59;;;;;;;1.13;1.13;;;22.10;48.20;;;;;;4985047;28;20747;-66
2023/03/11 08:21:28;;;;;;;1.07;0.97;;;22.80;46.80;;;;;;4996073;28;20634;-66
2023/03/11 08:24:00;;;;;;;3.90;1.30;;;23.40;46.20;;;22.42;nan;100064.47;4992717;28;20646;-68
2023/03/11 08:26:28;;;;;;;1.43;1.17;;;23.80;44.70;;;22.89;nan;100069.69;4991899;28;20627;-67
2023/03/11 08:28:57;;;;;;;3.63;1.60;;;24.10;44.50;;;22.35;nan;100069.78;4992797;28;20957;-66
2023/03/11 08:31:28;;;;;;;2.37;1.60;;;23.80;43.10;;;21.27;nan;100065.25;4990666;28;21300;-66
2023/03/11 08:34:00;;;;;;;1.87;1.10;;;22.90;43.80;;;21.10;nan;100059.41;4981343;28;21028;-67
2023/03/11 08:36:27;;;;;;;1.80;1.30;;;22.50;44.20;;;21.28;nan;100065.06;4975466;28;20911;-67
2023/03/11 08:38:54;;;;;;;3.47;1.53;;;22.70;43.90;;;22.12;nan;100063.97;4990857;28;21206;-67
2023/03/11 08:41:21;;;;;;;1.43;1.30;;;23.40;43.80;;;22.48;nan;100074.31;4992202;28;20642;-66
2023/03/11 08:43:50;;;;;;;1.83;1.07;;;23.80;42.60;;;22.26;nan;100067.47;4992746;28;20693;-66
2023/03/11 08:46:25;;;;;;;1.70;1.10;;;23.80;42.30;;;22.10;nan;100081.94;4973600;28;21302;-67
2023/03/11 08:48:53;;;;;;;2.00;1.20;;;23.40;42.90;;;22.73;nan;100079.91;4992713;28;20703;-67
2023/03/11 08:51:21;;;;;;;1.60;1.03;;;23.90;42.10;;;23.60;nan;100091.22;5006463;28;21321;-67
2023/03/11 08:53:48;;;;;;;2.83;1.10;;;24.70;41.30;;;24.49;nan;100082.34;4991034;28;21309;-68
2023/03/11 08:56:16;;;;;;;3.43;1.30;;;25.50;40.40;;;25.09;nan;100082.81;5004195;28;20634;-69
2023/03/11 08:58:43;;;;;;;1.43;1.17;;;26.30;39.50;;;25.56;nan;100084.88;4978417;28;20638;-67
2023/03/11 09:01:11;;;;;;;5.87;1.17;;;27.00;39.00;;;25.79;nan;100085.06;5005813;28;20700;-66
2023/03/11 09:03:39;;;;;;;1.73;1.10;;;27.10;38.40;;;26.15;nan;100090.44;4994443;28;21054;-67
2023/03/11 09:06:10;;;;;;;1.53;1.43;;;27.40;38.40;;;25.86;nan;100085.00;4988387;28;21188;-67
2023/03/11 09:08:38;;;;;;;1.83;1.00;;;27.30;37.80;;;25.63;nan;100085.66;4981494;28;20639;-65
2023/03/11 09:11:05;;;;;;;2.50;1.33;;;27.10;36.90;;;26.24;nan;100087.47;4990278;28;20674;-66
2023/03/11 09:13:32;;;;;;;3.63;1.10;;;27.50;37.00;;;26.21;nan;100087.91;5002933;28;20659;-67
2023/03/11 09:15:59;;;;;;;3.30;1.20;;;27.70;36.50;;;26.15;nan;100097.66;5018040;28;21226;-66
2023/03/11 09:18:28;;;;;;;2.23;1.27;;;27.60;36.30;;;26.76;nan;100086.78;5010023;28;20639;-66
2023/03/11 09:20:59;;;;;;;1.83;1.00;;;28.20;35.60;;;25.86;nan;100080.47;4993165;28;20717;-69
2023/03/11 09:23:26;;;;;;;1.07;0.97;;;27.70;35.10;;;25.45;nan;100082.94;4972944;28;20677;-65
2023/03/11 09:25:53;;;;;;;0.83;0.83;;;27.00;34.10;;;25.74;nan;100087.59;4979650;28;20635;-68
2023/03/11 09:28:20;;;;;;;0.80;0.80;;;27.20;34.10;;;26.27;nan;100081.66;4989924;28;20984;-66
2023/03/11 09:30:47;;;;;;;1.20;0.90;;;27.50;35.00;;;27.07;nan;100088.38;4980630;28;21009;-67
2023/03/11 09:33:14;;;;;;;3.77;1.63;;;28.20;34.80;;;27.67;nan;100097.88;4989461;28;20666;-66
2023/03/11 09:35:41;;;;;;;2.80;1.00;;;28.80;34.70;;;28.59;nan;100090.72;4989477;28;21002;-67
2023/03/11 09:38:08;;;;;;;3.63;1.20;;;29.80;34.10;;;29.06;nan;100086.72;4998317;28;20638;-67
2023/03/11 09:40:59;;;;;;;0.90;0.90;;;30.40;33.50;;;26.89;nan;100087.41;4989515;28;20736;-66
2023/03/11 09:43:53;;;;;;;1.30;0.80;;;28.70;32.70;;;27.63;nan;100086.81;4995400;28;21086;-68
2023/03/11 09:47:09;;;;;;;0.90;0.80;;;28.70;33.00;;;29.52;nan;100088.28;4999729;28;20694;-66
2023/03/11 09:50:19;;;;;;;1.10;1.00;;;30.40;32.70;;;29.57;nan;100082.97;4960046;28;20642;-66
2023/03/11 09:53:18;;;;;;;2.17;1.13;;;31.00;32.30;;;28.15;nan;100082.31;4989687;28;20668;-67
2023/03/11 09:55:54;;;;;;;1.23;1.10;;;30.10;32.40;;;26.53;nan;100076.81;4990457;28;20619;-64
2023/03/11 09:58:43;;;;;;;1.13;0.97;;;28.50;32.80;;;26.13;nan;100073.81;4994929;28;20654;-65
2023/03/11 10:01:41;;;;;;;0.80;0.80;;;27.50;33.30;;;27.01;nan;100089.28;4984646;28;20674;-66
2023/03/11 10:04:16;;;;;;;2.23;1.37;;;28.30;33.20;;;25.29;nan;100083.47;4986001;28;20851;-66
2023/03/11 10:06:45;;;;;;;0.80;0.80;;;26.70;33.30;;;24.17;nan;100077.97;4972942;28;20634;-67
2023/03/11 10:09:37;;;;;;;0.90;0.90;;;25.30;34.10;;;25.71;nan;100087.22;4996643;28;20627;-65
2023/03/11 10:12:48;;;;;;;2.00;1.40;;;26.30;34.10;;;25.30;nan;100079.75;4971380;28;20615;-66
2023/03/11 10:15:40;;;;;;;1.13;1.03;;;26.40;33.40;;;26.87;nan;100096.72;4981559;28;20640;-68
2023/03/11 10:18:30;;;;;;;1.43;1.10;;;27.80;33.40;;;26.73;nan;100092.59;5005877;28;20623;-66
2023/03/11 10:21:10;;;;;;;4.30;1.20;;;27.80;33.20;;;27.34;nan;100100.31;4989059;28;20708;-67
2023/03/11 10:24:13;;;;;;;1.07;0.90;;;28.60;32.30;;;27.65;nan;100102.66;5008154;28;20740;-67
2023/03/11 10:26:41;;;;;;;1.20;0.93;;;29.00;32.10;;;28.96;nan;100106.16;5000552;28;20631;-67
2023/03/11 10:29:26;;;;;;;2.43;1.00;;;30.10;31.80;;;29.31;nan;100113.22;4981254;28;20721;-65
2023/03/11 10:32:04;;;;;;;1.00;0.90;;;30.50;32.10;;;29.69;nan;100100.63;4970272;28;20646;-68
2023/03/11 10:34:48;;;;;;;1.00;1.00;;;31.00;30.50;;;30.09;nan;100100.38;4976707;28;20713;-66
2023/03/11 10:37:24;;;;;;;3.23;1.00;;;31.30;30.60;;;29.46;nan;100105.38;5000577;28;20651;-68
2023/03/11 10:40:18;;;;;;;1.63;0.90;;;30.90;30.60;;;29.25;nan;100106.97;5002511;28;20672;-68
2023/03/11 10:42:45;;;;;;;1.27;1.17;;;30.50;30.70;;;28.93;nan;100101.28;5000016;28;20638;-66
2023/03/11 10:45:14;;;;;;;3.47;1.00;;;30.10;30.90;;;27.85;nan;100108.47;5009634;28;20646;-67
2023/03/11 10:47:41;;;;;;;3.83;1.03;;;28.90;31.60;;;25.46;nan;100089.91;4980138;28;20635;-67
2023/03/11 10:50:19;;;;;;;2.20;1.10;;;26.70;32.30;;;22.08;nan;100093.78;4976054;28;20704;-68
2023/03/11 10:53:13;;;;;;;1.70;1.17;;;23.40;34.00;;;19.03;nan;100092.50;5008904;28;20656;-68
2023/03/11 10:55:53;;;;;;;2.00;0.83;;;20.40;37.20;;;16.67;nan;100078.53;5009471;28;20629;-67